Time;durP1;ratioP1;P1;durP2;ratioP2;P2;SDS_P1;SDS_P2;PMS_P1;PMS_P2;Temp;Humidity;BMP_temperature;BMP_pressure;BME280_temperature;BME280_humidity;BME280_pressure;Samples;Min_cycle;Max_cycle;Signal;HPM_P1;HPM_P2
2022/03/30 00:01:10;;;;;;;92.60;37.77;;;;;;;2.25;97.16;99002.06;4188887;28;21717;-68
2022/03/30 00:03:37;;;;;;;97.07;37.00;;;;;;;2.23;97.97;98996.09;4175898;28;21299;-67
2022/03/30 00:06:06;;;;;;;95.37;37.43;;;;;;;2.05;98.13;98994.00;4187027;28;20291;-68
2022/03/30 00:08:33;;;;;;;94.93;36.93;;;;;;;2.28;98.10;98993.91;4262203;28;22024;-68
2022/03/30 00:11:00;;;;;;;91.90;37.17;;;;;;;2.26;98.39;98995.81;4177518;28;20233;-69
2022/03/30 00:13:27;;;;;;;95.10;37.00;;;;;;;2.19;98.46;99000.75;4196251;28;20323;-67
2022/03/30 00:15:55;;;;;;;85.97;37.77;;;;;;;2.16;98.61;98997.56;4189858;28;22438;-66
2022/03/30 00:18:22;;;;;;;100.73;37.03;;;;;;;2.22;98.82;99000.47;4194690;28;23007;-67
2022/03/30 00:20:48;;;;;;;88.10;37.00;;;;;;;2.29;98.65;98990.31;4191350;28;20507;-66
2022/03/30 00:23:15;;;;;;;92.13;37.07;;;;;;;2.32;98.09;98997.97;4173917;28;21406;-68
2022/03/30 00:25:41;;;;;;;88.87;37.27;;;;;;;2.44;97.64;98996.91;4191662;28;20241;-63
2022/03/30 00:28:09;;;;;;;81.77;35.40;;;;;;;2.50;97.54;98991.13;4199789;28;21361;-69
2022/03/30 00:30:36;;;;;;;90.13;36.80;;;;;;;2.52;96.83;98989.22;4196896;28;20316;-67
2022/03/30 00:33:02;;;;;;;92.00;37.83;;;;;;;2.56;97.20;98991.59;4202513;28;20285;-66
2022/03/30 00:35:29;;;;;;;93.87;38.73;;;;;;;2.31;97.77;98993.66;4191871;28;22731;-67
2022/03/30 00:37:56;;;;;;;109.33;39.87;;;;;;;2.05;98.62;98991.38;4179986;28;20296;-67
2022/03/30 00:40:23;;;;;;;101.77;38.97;;;;;;;2.02;99.23;98986.41;4190287;28;20228;-65
2022/03/30 00:42:49;;;;;;;90.43;38.27;;;;;;;2.10;100.00;98988.38;4196769;28;20261;-65
2022/03/30 00:45:21;;;;;;;96.80;38.13;;;;;;;2.26;99.43;98983.53;4192852;28;20228;-66
2022/03/30 00:47:48;;;;;;;93.47;37.40;;;;;;;2.27;99.00;98984.34;4192542;28;23095;-66
2022/03/30 00:50:19;;;;;;;97.27;38.23;;;;;;;2.28;98.93;98983.41;4179113;28;20239;-67
2022/03/30 00:52:47;;;;;;;88.87;36.33;;;;;;;2.07;99.46;98981.59;4198066;28;21595;-67
2022/03/30 00:55:16;;;;;;;89.70;35.63;;;;;;;2.07;100.00;98981.59;4183245;28;20237;-69
2022/03/30 00:57:44;;;;;;;98.83;37.20;;;;;;;1.90;100.00;98976.94;4187061;28;20260;-66
2022/03/30 01:00:12;;;;;;;95.07;36.73;;;;;;;1.99;100.00;98981.41;4192081;28;20270;-67
2022/03/30 01:02:40;;;;;;;95.37;36.90;;;;;;;1.99;100.00;98976.19;4208189;28;20240;-66
2022/03/30 01:05:07;;;;;;;99.13;38.90;;;;;;;2.05;100.00;98980.91;4188813;28;20345;-67
2022/03/30 01:07:33;;;;;;;93.47;38.10;;;;;;;2.05;100.00;98978.28;4192984;28;20448;-67
2022/03/30 01:10:02;;;;;;;95.17;37.83;;;;;;;2.11;100.00;98979.56;4195620;28;21295;-67
2022/03/30 01:12:31;;;;;;;98.23;38.27;;;;;;;2.13;100.00;98982.91;4178805;28;20791;-67
2022/03/30 01:14:59;;;;;;;96.93;37.13;;;;;;;1.98;100.00;98979.75;4202878;28;20372;-67
2022/03/30 01:17:26;;;;;;;97.93;37.60;;;;;;;2.04;100.00;98976.63;4176651;28;21555;-68
2022/03/30 01:19:52;;;;;;;89.53;37.37;;;;;;;2.20;100.00;98975.34;4196422;28;20933;-68
2022/03/30 01:22:19;;;;;;;98.77;37.67;;;;;;;2.01;100.00;98973.41;4191293;28;20254;-68
2022/03/30 01:24:45;;;;;;;92.17;37.77;;;;;;;2.03;100.00;98971.50;4181115;28;20497;-68
2022/03/30 01:27:12;;;;;;;80.27;35.20;;;;;;;2.08;100.00;98970.16;4182606;28;20712;-67
2022/03/30 01:32:25;;;;;;;96.63;37.70;;;;;;;2.05;100.00;98962.53;4183032;28;24169;-67
2022/03/30 01:34:53;;;;;;;90.77;36.83;;;;;;;1.99;100.00;98957.81;4194319;28;22232;-68
2022/03/30 01:37:20;;;;;;;86.93;36.50;;;;;;;2.08;100.00;98954.44;4189818;28;20231;-67
2022/03/30 01:39:46;;;;;;;93.43;36.10;;;;;;;2.15;100.00;98953.91;4181315;28;20255;-67
2022/03/30 01:42:13;;;;;;;88.93;35.23;;;;;;;2.22;100.00;98953.25;4194707;28;20292;-69
2022/03/30 01:44:40;;;;;;;87.80;37.50;;;;;;;2.25;99.44;98952.19;4191019;28;23152;-68
2022/03/30 01:47:07;;;;;;;85.67;35.27;;;;;;;2.21;99.46;98945.53;4181562;28;22528;-67
2022/03/30 01:49:33;;;;;;;84.67;36.10;;;;;;;2.30;99.60;98944.75;4184509;28;20307;-69
2022/03/30 01:52:00;;;;;;;89.10;36.77;;;;;;;2.28;99.16;98944.88;4191440;28;20251;-67
2022/03/30 01:54:27;;;;;;;88.93;36.27;;;;;;;2.22;99.76;98939.31;4202395;28;22961;-68
2022/03/30 01:56:55;;;;;;;91.57;37.27;;;;;;;2.11;99.46;98935.78;4205251;28;22930;-67
2022/03/30 01:59:22;;;;;;;87.63;35.83;;;;;;;2.26;99.86;98938.09;4177424;28;20254;-68
2022/03/30 02:01:49;;;;;;;85.50;36.87;;;;;;;2.23;99.71;98931.31;4205036;28;20615;-66
2022/03/30 02:04:15;;;;;;;88.37;36.50;;;;;;;2.06;99.75;98935.34;4194427;28;20315;-67
2022/03/30 02:06:42;;;;;;;86.70;36.70;;;;;;;2.14;99.96;98926.00;4199757;28;20256;-68
2022/03/30 02:09:12;;;;;;;99.70;37.43;;;;;;;2.23;99.31;98927.84;4189436;28;20234;-67
2022/03/30 02:11:39;;;;;;;85.17;35.90;;;;;;;2.24;99.41;98919.84;4208064;28;21824;-68
2022/03/30 02:14:05;;;;;;;85.00;34.60;;;;;;;2.24;99.34;98921.63;4187722;28;20292;-67
2022/03/30 02:16:32;;;;;;;88.87;36.20;;;;;;;2.19;99.68;98914.16;4191824;28;20330;-67
2022/03/30 02:18:59;;;;;;;94.00;37.50;;;;;;;2.19;99.76;98911.53;4188889;28;20265;-66
2022/03/30 02:21:25;;;;;;;91.10;35.83;;;;;;;2.30;99.55;98908.00;4180250;28;20229;-67
2022/03/30 02:23:52;;;;;;;93.40;36.83;;;;;;;2.29;99.86;98914.19;4189471;28;20249;-67
2022/03/30 02:26:19;;;;;;;92.20;38.27;;;;;;;2.45;98.42;98914.56;4189385;28;21457;-66
2022/03/30 02:28:51;;;;;;;86.87;35.87;;;;;;;2.44;97.98;98914.72;4191492;28;21113;-67
2022/03/30 02:31:21;;;;;;;86.27;34.93;;;;;;;2.36;98.47;98915.34;4177063;28;20233;-67
2022/03/30 02:33:48;;;;;;;85.50;36.43;;;;;;;2.33;98.59;98911.19;4170107;28;20229;-69
2022/03/30 02:36:14;;;;;;;86.90;37.23;;;;;;;2.08;98.83;98901.94;4190683;28;20244;-65
2022/03/30 02:38:42;;;;;;;93.13;38.03;;;;;;;2.19;98.97;98902.81;4175755;28;20244;-67
2022/03/30 02:41:10;;;;;;;98.00;39.53;;;;;;;2.10;99.41;98896.56;4187290;28;20363;-67
2022/03/30 02:43:36;;;;;;;92.30;37.57;;;;;;;2.08;99.22;98893.22;4190381;28;21169;-67
2022/03/30 02:46:03;;;;;;;91.00;37.60;;;;;;;1.99;99.88;98894.00;4189623;28;20229;-67
2022/03/30 02:48:33;;;;;;;93.63;38.00;;;;;;;2.13;99.24;98892.84;4202320;28;27781;-68
2022/03/30 02:51:02;;;;;;;99.80;36.77;;;;;;;2.13;99.06;98891.06;4191963;28;20342;-67
2022/03/30 02:53:29;;;;;;;97.63;37.50;;;;;;;2.13;98.97;98898.09;4202447;28;20229;-66
2022/03/30 02:55:56;;;;;;;88.20;37.33;;;;;;;2.08;99.23;98895.84;4188566;28;20240;-68
2022/03/30 02:58:23;;;;;;;95.50;38.20;;;;;;;2.24;98.77;98900.63;4177229;28;20289;-67
2022/03/30 03:00:49;;;;;;;92.90;36.33;;;;;;;2.32;97.68;98890.34;4193501;28;20650;-68
2022/03/30 03:03:16;;;;;;;85.10;35.60;;;;;;;2.35;97.36;98886.63;4193612;28;20630;-67
2022/03/30 03:05:43;;;;;;;92.00;37.63;;;;;;;2.35;97.81;98894.50;4190589;28;20226;-67
2022/03/30 03:08:11;;;;;;;94.83;36.53;;;;;;;2.29;97.62;98898.44;4188581;28;20224;-68
2022/03/30 03:10:39;;;;;;;96.87;37.87;;;;;;;2.13;97.98;98892.84;4198561;28;22293;-66
2022/03/30 03:13:06;;;;;;;91.57;36.80;;;;;;;2.08;97.91;98893.22;4188840;28;20287;-68
2022/03/30 03:15:34;;;;;;;96.80;36.87;;;;;;;2.13;97.33;98891.06;4197858;28;20307;-66
2022/03/30 03:18:02;;;;;;;92.17;37.03;;;;;;;2.11;97.26;98896.44;4190158;28;20228;-69
2022/03/30 03:20:30;;;;;;;95.30;38.40;;;;;;;2.04;97.76;98887.41;4195110;28;20700;-66
2022/03/30 03:22:57;;;;;;;88.77;37.10;;;;;;;1.99;97.62;98884.34;4181638;28;20239;-66
2022/03/30 03:25:24;;;;;;;89.63;37.83;;;;;;;2.13;98.01;98882.34;4185113;28;20290;-68
2022/03/30 03:27:52;;;;;;;88.07;36.13;;;;;;;2.24;97.59;98884.91;4188247;28;20220;-67
2022/03/30 03:30:20;;;;;;;91.03;36.70;;;;;;;2.09;97.45;98881.78;4191066;28;20316;-68
2022/03/30 03:32:46;;;;;;;88.10;37.00;;;;;;;2.11;98.10;98890.38;4193577;28;20236;-67
2022/03/30 03:35:14;;;;;;;95.87;38.37;;;;;;;2.20;98.15;98886.09;4190316;28;20243;-67
2022/03/30 03:37:41;;;;;;;94.03;37.30;;;;;;;2.19;97.51;98890.53;4190904;28;21563;-67
2022/03/30 03:40:08;;;;;;;100.70;39.10;;;;;;;2.16;97.78;98888.19;4176666;28;20296;-66
2022/03/30 03:42:36;;;;;;;102.70;40.40;;;;;;;2.01;98.15;98885.03;4165550;28;20244;-68
2022/03/30 03:45:05;;;;;;;97.23;39.00;;;;;;;2.09;98.46;98882.59;4178974;28;20233;-66
2022/03/30 03:47:32;;;;;;;97.57;38.73;;;;;;;1.96;98.92;98876.72;4182906;28;20297;-67
2022/03/30 03:49:58;;;;;;;103.20;38.83;;;;;;;1.90;99.37;98880.69;4179962;28;20232;-67
2022/03/30 03:52:25;;;;;;;101.37;39.33;;;;;;;1.91;99.54;98881.53;4182755;28;20327;-67
2022/03/30 03:54:51;;;;;;;93.40;37.97;;;;;;;1.95;99.38;98877.69;4204834;28;20241;-68
2022/03/30 03:57:18;;;;;;;99.03;38.13;;;;;;;1.94;99.98;98869.94;4192719;28;21663;-67
2022/03/30 03:59:44;;;;;;;100.40;40.23;;;;;;;1.90;99.64;98864.13;4210941;28;20469;-68
2022/03/30 04:02:11;;;;;;;104.07;39.73;;;;;;;1.99;99.66;98873.00;4193019;28;20337;-66
2022/03/30 04:04:38;;;;;;;96.20;38.77;;;;;;;2.08;99.11;98872.22;4176767;28;20365;-65
2022/03/30 04:07:04;;;;;;;102.00;39.20;;;;;;;1.90;99.05;98867.59;4188225;28;20244;-66
2022/03/30 04:09:31;;;;;;;101.57;39.23;;;;;;;1.97;99.45;98878.41;4189693;28;20227;-65
2022/03/30 04:11:57;;;;;;;96.87;38.43;;;;;;;1.96;99.15;98871.47;4193332;28;23564;-66
2022/03/30 04:14:24;;;;;;;102.67;39.03;;;;;;;2.01;99.36;98874.53;4192277;28;20411;-67
2022/03/30 04:16:50;;;;;;;91.33;37.23;;;;;;;2.02;98.65;98878.00;4194893;28;20415;-67
2022/03/30 04:19:17;;;;;;;95.67;37.67;;;;;;;1.99;99.22;98873.88;4180779;28;20237;-66
2022/03/30 04:21:44;;;;;;;92.60;37.53;;;;;;;2.00;98.90;98877.31;4191755;28;20237;-68
2022/03/30 04:24:10;;;;;;;98.80;37.37;;;;;;;1.96;98.86;98875.91;4178797;28;22963;-65
2022/03/30 04:26:38;;;;;;;105.40;39.03;;;;;;;1.92;98.45;98875.34;4182443;28;20228;-68
2022/03/30 04:29:05;;;;;;;103.10;39.57;;;;;;;2.00;98.60;98878.13;4193348;28;20342;-65
2022/03/30 04:31:32;;;;;;;92.03;39.00;;;;;;;2.01;97.91;98879.78;4169852;28;21494;-66
2022/03/30 04:33:59;;;;;;;88.10;37.27;;;;;;;1.99;97.94;98876.47;4186030;28;22056;-65
2022/03/30 04:36:26;;;;;;;95.77;37.57;;;;;;;2.06;97.43;98882.88;4213166;28;20298;-65
2022/03/30 04:38:53;;;;;;;96.40;40.17;;;;;;;2.01;97.10;98874.53;4210406;28;20241;-67
2022/03/30 04:41:19;;;;;;;98.27;35.63;;;;;;;2.02;97.02;98873.59;4208699;28;20459;-63
2022/03/30 04:43:46;;;;;;;96.57;38.50;;;;;;;2.02;97.22;98876.22;4212396;28;20229;-64
2022/03/30 04:46:13;;;;;;;100.40;38.37;;;;;;;2.02;97.04;98876.22;4207923;28;20232;-69
2022/03/30 04:48:39;;;;;;;94.23;36.83;;;;;;;2.07;96.85;98886.31;4192677;28;20236;-64
2022/03/30 04:51:06;;;;;;;91.20;38.57;;;;;;;1.97;96.51;98878.41;4182011;28;25653;-63
2022/03/30 04:53:34;;;;;;;100.43;37.07;;;;;;;2.02;96.84;98885.88;4200795;28;25324;-65
2022/03/30 04:56:00;;;;;;;103.17;37.97;;;;;;;2.06;96.41;98882.88;4167448;28;21817;-63
2022/03/30 04:58:27;;;;;;;96.63;39.57;;;;;;;2.09;95.48;98884.41;4205036;28;20456;-65
2022/03/30 05:00:55;;;;;;;94.97;37.97;;;;;;;2.15;95.62;98883.88;4180210;28;20259;-69
2022/03/30 05:03:21;;;;;;;93.70;37.83;;;;;;;2.15;95.52;98869.94;4177299;28;20239;-65
2022/03/30 05:05:48;;;;;;;94.50;37.73;;;;;;;2.09;95.57;98876.53;4185329;28;20678;-64
2022/03/30 05:08:15;;;;;;;93.60;37.47;;;;;;;2.20;94.72;98883.47;4205502;28;21789;-70
2022/03/30 05:10:41;;;;;;;91.97;36.93;;;;;;;2.01;95.18;98885.03;4182241;28;20344;-64
2022/03/30 05:13:08;;;;;;;102.87;39.50;;;;;;;2.04;95.16;98879.56;4186186;28;20311;-66
2022/03/30 05:15:34;;;;;;;94.33;38.67;;;;;;;2.00;95.68;98883.38;4187354;28;20352;-70
2022/03/30 05:18:01;;;;;;;93.93;39.27;;;;;;;2.05;95.62;98886.44;4174400;28;20601;-64
2022/03/30 05:20:28;;;;;;;103.10;39.73;;;;;;;2.16;95.54;98895.22;4179687;28;20253;-68
2022/03/30 05:22:55;;;;;;;105.17;38.97;;;;;;;2.28;94.89;98894.19;4183861;28;20233;-65
2022/03/30 05:25:22;;;;;;;96.97;40.23;;;;;;;2.32;94.82;98893.78;4167236;28;20364;-66
2022/03/30 05:27:48;;;;;;;96.53;39.43;;;;;;;2.44;93.97;98891.91;4176273;28;20306;-65
2022/03/30 05:30:15;;;;;;;96.37;38.93;;;;;;;2.52;93.80;98897.31;4169981;28;20340;-65
2022/03/30 05:32:45;;;;;;;104.13;40.10;;;;;;;2.49;93.82;98899.41;4184656;28;20241;-66
2022/03/30 05:35:13;;;;;;;95.17;38.90;;;;;;;2.54;93.66;98905.91;4207977;28;20349;-64
2022/03/30 05:37:40;;;;;;;109.50;40.60;;;;;;;2.59;93.83;98909.94;4190236;28;20241;-64
2022/03/30 05:40:09;;;;;;;99.47;38.70;;;;;;;2.33;94.50;98902.50;4185405;28;20241;-65
2022/03/30 05:42:36;;;;;;;102.73;40.57;;;;;;;2.26;95.88;98911.84;4196441;28;20260;-65
2022/03/30 05:45:04;;;;;;;108.37;41.73;;;;;;;2.44;95.36;98912.91;4181046;28;20234;-68
2022/03/30 05:47:31;;;;;;;96.07;39.80;;;;;;;2.38;95.28;98908.16;4164216;28;21171;-65
2022/03/30 05:49:58;;;;;;;107.07;40.70;;;;;;;2.16;96.42;98908.34;4165285;28;25695;-66
2022/03/30 05:52:24;;;;;;;109.53;41.13;;;;;;;2.17;97.14;98916.06;4155593;28;20670;-64
2022/03/30 05:54:51;;;;;;;103.77;42.10;;;;;;;2.15;97.82;98915.38;4183963;28;20431;-65
2022/03/30 05:57:21;;;;;;;104.10;41.43;;;;;;;2.22;97.71;98915.69;4167442;28;20701;-64
2022/03/30 05:59:48;;;;;;;108.63;41.23;;;;;;;2.30;97.21;98921.13;4192914;28;21616;-65
2022/03/30 06:02:15;;;;;;;106.17;40.80;;;;;;;2.31;97.49;98913.09;4189434;28;20237;-64
2022/03/30 06:04:42;;;;;;;105.37;41.80;;;;;;;2.39;97.22;98915.09;4186721;28;23552;-66
2022/03/30 06:07:10;;;;;;;104.73;40.27;;;;;;;2.44;96.76;98914.72;4175267;28;20232;-65
2022/03/30 06:09:36;;;;;;;103.97;40.80;;;;;;;2.53;96.35;98917.38;4188662;28;20238;-67
2022/03/30 06:12:09;;;;;;;93.30;38.67;;;;;;;2.53;95.35;98906.06;4177590;28;20275;-65
2022/03/30 06:14:35;;;;;;;104.63;39.00;;;;;;;2.63;95.24;98911.34;4201733;28;20237;-67
2022/03/30 06:17:03;;;;;;;94.37;38.07;;;;;;;2.71;94.87;98919.38;4204005;28;23099;-65
2022/03/30 06:19:31;;;;;;;92.60;38.77;;;;;;;2.84;93.88;98912.09;4188879;28;20241;-65
2022/03/30 06:21:58;;;;;;;84.53;35.93;;;;;;;2.98;93.55;98910.09;4191807;28;20303;-66
2022/03/30 06:24:24;;;;;;;91.67;35.67;;;;;;;3.25;91.57;98907.63;4197229;28;20229;-66
2022/03/30 06:26:51;;;;;;;89.40;37.43;;;;;;;3.09;89.90;98909.94;4181586;28;22733;-68
2022/03/30 06:29:18;;;;;;;86.77;35.70;;;;;;;3.19;89.77;98918.69;4201486;28;20322;-67
2022/03/30 06:31:45;;;;;;;89.17;35.73;;;;;;;3.20;89.56;98919.53;4192138;28;20307;-67
2022/03/30 06:34:12;;;;;;;81.83;35.47;;;;;;;3.22;89.25;98913.16;4212550;28;26275;-66
2022/03/30 06:36:38;;;;;;;88.37;35.93;;;;;;;3.38;88.54;98920.53;4192601;28;20336;-68
2022/03/30 06:39:06;;;;;;;94.20;37.50;;;;;;;3.37;89.10;98916.22;4198301;28;20232;-68
2022/03/30 06:41:33;;;;;;;96.27;36.67;;;;;;;3.36;88.28;98920.66;4187769;28;20263;-65
2022/03/30 06:43:59;;;;;;;81.97;35.73;;;;;;;3.39;88.58;98922.19;4201457;28;20241;-67
2022/03/30 06:46:26;;;;;;;84.77;34.03;;;;;;;3.58;86.70;98913.47;4210791;28;22879;-65
2022/03/30 06:48:53;;;;;;;84.70;34.57;;;;;;;3.83;86.15;98925.25;4198301;28;22880;-66
2022/03/30 06:51:19;;;;;;;85.10;34.27;;;;;;;4.01;84.95;98931.47;4225236;28;20287;-67
2022/03/30 06:53:46;;;;;;;78.10;34.67;;;;;;;4.17;84.42;98927.44;4209692;28;20236;-66
2022/03/30 06:56:13;;;;;;;81.57;33.30;;;;;;;4.14;83.19;98917.16;4208206;28;20239;-64
2022/03/30 06:58:40;;;;;;;73.23;30.13;;;;;;;4.33;80.50;98929.47;4228624;28;20779;-67
2022/03/30 07:01:06;;;;;;;78.10;32.50;;;;;;;4.69;79.64;98922.56;4228870;28;21047;-67
2022/03/30 07:03:33;;;;;;;75.00;32.10;;;;;;;4.54;79.77;98931.91;4170994;28;20442;-69
2022/03/30 07:06:01;;;;;;;70.57;32.67;;;;;;;4.65;79.29;98929.91;4209386;28;20236;-66
2022/03/30 07:11:13;;;;;;;73.73;30.80;;;;;;;5.01;77.21;98934.47;4232856;28;20260;-68
2022/03/30 07:13:39;;;;;;;62.80;27.87;;;;;;;5.72;76.43;98939.03;4190110;28;20374;-65
2022/03/30 07:16:06;;;;;;;90.73;34.43;;;;;;;6.89;68.30;98943.19;4197698;28;20253;-68
2022/03/30 07:18:33;;;;;;;81.47;33.00;;;;;;;8.61;62.68;98952.22;4196112;28;20408;-66
2022/03/30 07:21:00;;;;;;;72.27;28.03;;;;;;;9.41;57.49;98961.06;4203046;28;22990;-67
2022/03/30 07:23:26;;;;;;;59.73;24.33;;;;;;;11.31;52.61;98968.06;4190528;28;20757;-67
2022/03/30 07:25:56;;;;;;;52.83;22.87;;;;;;;13.19;42.82;98982.06;4194134;28;22309;-66
2022/03/30 07:28:22;;;;;;;53.53;23.30;;;;;;;13.75;42.08;98984.56;4199044;28;21083;-66
2022/03/30 07:30:49;;;;;;;44.23;19.83;;;;;;;14.96;37.07;98992.50;4199723;28;21257;-65
2022/03/30 07:33:16;;;;;;;38.33;19.73;;;;;;;15.51;35.22;99004.72;4214575;28;25234;-66
2022/03/30 07:35:46;;;;;;;44.17;18.70;;;;;;;15.10;34.85;98995.13;4198838;28;20577;-66
2022/03/30 07:38:14;;;;;;;41.13;17.83;;;;;;;16.53;32.23;99004.75;4203182;28;20323;-65
2022/03/30 07:40:42;;;;;;;42.50;18.07;;;;;;;16.59;30.58;98999.31;4186190;28;20804;-67
2022/03/30 07:43:09;;;;;;;37.37;16.10;;;;;;;15.83;31.44;99003.75;4194319;28;20275;-67
2022/03/30 07:45:39;;;;;;;34.67;15.00;;;;;;;16.58;29.78;99018.38;4200365;28;21850;-67
2022/03/30 07:48:06;;;;;;;32.33;13.07;;;;;;;15.01;31.25;99002.59;4185864;28;20260;-66
2022/03/30 07:50:33;;;;;;;24.53;11.43;;;;;;;16.45;28.94;99009.34;4214729;28;20617;-65
2022/03/30 07:53:00;;;;;;;27.17;12.00;;;;;;;17.31;27.54;99006.94;4208746;28;20335;-64
2022/03/30 07:55:28;;;;;;;22.07;9.37;;;;;;;17.74;26.37;99011.38;4195943;28;20300;-66
2022/03/30 07:57:55;;;;;;;30.07;10.73;;;;;;;16.86;26.98;99007.19;4187110;28;20240;-66
2022/03/30 08:00:22;;;;;;;30.37;11.00;;;;;;;18.09;25.36;99019.63;4214339;28;23294;-66
2022/03/30 08:02:49;;;;;;;26.93;10.10;;;;;;;18.04;24.92;99016.00;4210711;28;20324;-67
2022/03/30 08:05:16;;;;;;;25.30;10.07;;;;;;;18.92;24.33;99020.66;4199701;28;20347;-68
2022/03/30 08:07:45;;;;;;;23.43;9.40;;;;;;;18.47;24.47;99021.16;4205642;28;20245;-65
2022/03/30 08:10:12;;;;;;;21.70;9.23;;;;;;;18.10;24.48;99034.75;4182763;28;20228;-66
2022/03/30 08:12:40;;;;;;;21.43;10.20;;;;;;;18.26;24.43;99025.22;4201675;28;20887;-67
2022/03/30 08:15:12;;;;;;;26.07;9.60;;;;;;;19.33;23.48;99021.56;4210560;28;20328;-67
2022/03/30 08:17:39;;;;;;;21.07;8.63;;;;;;;19.80;22.85;99026.06;4217913;28;20306;-67
2022/03/30 08:20:06;;;;;;;24.23;9.43;;;;;;;17.44;25.73;99014.88;4216870;28;22141;-67
2022/03/30 08:22:33;;;;;;;26.50;10.37;;;;;;;14.99;29.57;98993.94;4188279;28;21881;-67
2022/03/30 08:25:07;;;;;;;26.23;10.10;;;;;;;13.53;31.81;98991.88;4208234;28;20236;-67
2022/03/30 08:27:34;;;;;;;31.43;9.57;;;;;;;13.65;32.05;98994.81;4209569;28;20297;-67
2022/03/30 08:30:03;;;;;;;27.37;9.47;;;;;;;14.03;31.76;98994.31;4208289;28;22255;-65
2022/03/30 08:32:29;;;;;;;26.50;8.37;;;;;;;12.39;35.07;98985.00;4187532;28;20310;-66
2022/03/30 08:34:56;;;;;;;19.67;8.83;;;;;;;11.22;37.64;98977.16;4171842;28;20469;-69
2022/03/30 08:37:23;;;;;;;24.33;9.27;;;;;;;10.85;37.87;98978.91;4209183;28;20287;-66
2022/03/30 08:39:53;;;;;;;26.47;9.17;;;;;;;11.06;37.39;98966.72;4251470;28;20370;-65
2022/03/30 08:42:20;;;;;;;17.80;7.93;;;;;;;11.17;36.96;98968.91;4204076;28;20241;-66
2022/03/30 08:44:47;;;;;;;24.00;7.73;;;;;;;10.96;38.10;98974.97;4188989;28;20263;-66
2022/03/30 08:47:14;;;;;;;22.43;7.37;;;;;;;10.99;37.47;98974.59;4210246;28;25505;-67
2022/03/30 08:49:42;;;;;;;25.70;7.47;;;;;;;10.58;38.84;98964.38;4209162;28;20254;-66
2022/03/30 08:52:12;;;;;;;17.47;6.70;;;;;;;10.40;38.20;98964.72;4202576;28;21684;-68
2022/03/30 08:54:47;;;;;;;16.73;6.80;;;;;;;10.32;38.50;98962.13;4226995;28;20300;-68
2022/03/30 08:57:14;;;;;;;22.33;7.70;;;;;;;9.88;38.75;98965.41;4201714;28;20265;-66
2022/03/30 08:59:59;;;;;;;17.17;6.17;;;;;;;8.97;41.17;98959.75;4212131;28;20848;-65
2022/03/30 09:02:39;;;;;;;20.73;6.60;;;;;;;8.85;41.68;98966.44;4216078;28;20213;-69
2022/03/30 09:05:18;;;;;;;21.77;7.40;;;;;;;9.10;41.31;98959.19;4221210;28;26260;-66
2022/03/30 09:07:48;;;;;;;20.07;5.97;;;;;;;9.18;40.81;98959.19;4221820;28;20805;-66
2022/03/30 09:10:18;;;;;;;16.97;6.10;;;;;;;9.47;40.19;98957.72;4249265;28;23635;-66
2022/03/30 09:12:47;;;;;;;21.60;6.30;;;;;;;9.20;40.87;98959.84;4274097;28;20264;-64
2022/03/30 09:15:14;;;;;;;20.80;6.13;;;;;;;8.41;41.33;98950.94;4199044;28;20681;-65
2022/03/30 09:18:06;;;;;;;21.43;6.10;;;;;;;8.35;43.17;98952.38;4204973;28;20244;-67
2022/03/30 09:20:39;;;;;;;20.40;5.93;;;;;;;8.41;42.64;98954.41;4210723;28;20279;-66
2022/03/30 09:23:08;;;;;;;19.70;6.57;;;;;;;8.03;43.56;98946.13;4187929;28;21977;-65
2022/03/30 09:25:46;;;;;;;20.37;7.13;;;;;;;7.87;44.03;98948.75;4204552;28;20296;-67
2022/03/30 09:28:14;;;;;;;26.60;6.60;;;;;;;7.69;43.96;98950.72;4199050;28;22699;-66
2022/03/30 09:30:41;;;;;;;18.20;5.07;;;;;;;7.67;43.85;98953.53;4185792;28;20240;-65
2022/03/30 09:33:10;;;;;;;20.30;7.37;;;;;;;8.02;43.81;98949.75;4191394;28;23153;-66
2022/03/30 09:35:40;;;;;;;21.80;6.93;;;;;;;7.93;43.86;98940.13;4196361;28;20787;-67
2022/03/30 09:38:36;;;;;;;29.83;5.90;;;;;;;7.57;44.99;98947.56;4193938;28;21340;-67
2022/03/30 09:41:04;;;;;;;18.70;6.43;;;;;;;7.56;45.75;98944.09;4217759;28;22598;-68
2022/03/30 09:43:33;;;;;;;24.47;7.03;;;;;;;7.92;44.94;98941.16;4204528;28;20230;-66
2022/03/30 09:46:06;;;;;;;19.97;5.97;;;;;;;7.92;44.65;98929.72;4201539;28;22266;-63
2022/03/30 09:48:56;;;;;;;20.90;7.07;;;;;;;7.78;45.00;98923.28;4194316;28;22670;-67
2022/03/30 09:51:25;;;;;;;18.23;6.60;;;;;;;8.00;44.15;98941.13;4187649;28;20357;-66
2022/03/30 09:53:52;;;;;;;23.07;6.00;;;;;;;8.52;42.70;98939.13;4192671;28;22244;-68
2022/03/30 09:56:24;;;;;;;21.73;6.17;;;;;;;8.36;42.53;98943.47;4200105;28;20332;-65
2022/03/30 09:59:01;;;;;;;26.90;6.03;;;;;;;8.27;42.04;98931.22;4191426;28;22320;-64
2022/03/30 10:01:33;;;;;;;20.83;6.50;;;;;;;8.10;42.73;98932.19;4168572;28;20264;-64
2022/03/30 10:04:04;;;;;;;23.70;5.60;;;;;;;8.34;42.17;98931.38;4193968;28;20245;-67
2022/03/30 10:06:33;;;;;;;20.70;5.30;;;;;;;8.26;41.07;98937.50;4253973;28;20237;-64
2022/03/30 10:09:04;;;;;;;19.53;5.90;;;;;;;8.37;40.96;98934.50;4193356;28;20378;-66
2022/03/30 10:11:31;;;;;;;19.07;5.40;;;;;;;8.18;41.57;98932.22;4191709;28;20252;-65
2022/03/30 10:14:00;;;;;;;13.83;5.20;;;;;;;8.13;42.40;98929.22;4222915;28;21843;-65
2022/03/30 10:16:43;;;;;;;12.50;4.80;;;;;;;8.33;42.09;98925.22;4241050;28;20524;-65
2022/03/30 10:19:11;;;;;;;13.57;5.40;;;;;;;8.66;41.56;98925.19;4201778;28;20942;-66
2022/03/30 10:21:54;;;;;;;20.53;5.40;;;;;;;8.87;40.72;98928.13;4223723;28;20292;-67
2022/03/30 10:24:42;;;;;;;21.00;5.53;;;;;;;8.86;40.90;98920.34;4206634;28;20230;-66
2022/03/30 10:27:37;;;;;;;16.77;5.93;;;;;;;8.98;39.77;98931.41;4229594;28;20887;-67
2022/03/30 10:30:06;;;;;;;22.47;6.07;;;;;;;8.88;40.17;98931.59;4213455;28;20224;-63
2022/03/30 10:32:37;;;;;;;17.57;5.90;;;;;;;9.18;40.31;98922.03;4223511;28;20237;-65
2022/03/30 10:35:11;;;;;;;16.53;5.67;;;;;;;9.48;39.88;98922.19;4232810;28;20272;-64
2022/03/30 10:37:43;;;;;;;19.60;5.73;;;;;;;9.57;38.20;98925.63;4201670;28;20327;-66
2022/03/30 10:40:12;;;;;;;17.87;5.80;;;;;;;9.30;38.17;98931.25;4222908;28;20244;-65
2022/03/30 10:42:48;;;;;;;15.20;5.67;;;;;;;8.97;39.72;98927.09;4196651;28;21475;-65
2022/03/30 10:45:34;;;;;;;14.47;6.33;;;;;;;8.41;41.28;98925.25;4208516;28;20233;-67
2022/03/30 10:48:17;;;;;;;14.70;6.00;;;;;;;8.63;41.83;98921.06;4196044;28;20290;-67
2022/03/30 10:50:56;;;;;;;14.60;5.80;;;;;;;8.28;42.66;98908.19;4204575;28;20657;-64
2022/03/30 10:53:35;;;;;;;18.37;6.40;;;;;;;8.49;42.96;98905.84;4195687;28;20229;-67
2022/03/30 10:56:07;;;;;;;20.57;5.80;;;;;;;8.95;41.78;98924.59;4177269;28;21543;-65
2022/03/30 10:59:01;;;;;;;18.50;6.03;;;;;;;9.07;40.73;98925.06;4209940;28;20244;-71
2022/03/30 11:01:29;;;;;;;15.27;5.60;;;;;;;9.18;40.28;98927.34;4192223;28;20254;-63
2022/03/30 11:03:57;;;;;;;18.13;5.97;;;;;;;9.12;40.96;98927.19;4177048;28;20246;-68
2022/03/30 11:06:25;;;;;;;21.30;6.30;;;;;;;9.16;41.09;98929.34;4203918;28;20244;-64
2022/03/30 11:08:51;;;;;;;14.03;5.53;;;;;;;9.48;40.12;98938.13;4208173;28;20233;-65
2022/03/30 11:11:22;;;;;;;11.90;5.63;;;;;;;9.14;40.17;98931.31;4201677;28;21202;-66
2022/03/30 11:14:25;;;;;;;22.17;6.03;;;;;;;9.12;41.24;98928.00;4204761;28;20541;-65
2022/03/30 11:16:56;;;;;;;17.03;6.30;;;;;;;9.09;41.75;98933.69;4217445;28;20293;-63
2022/03/30 11:19:29;;;;;;;13.40;5.17;;;;;;;9.19;39.49;98928.97;4200178;28;20627;-64
2022/03/30 11:22:08;;;;;;;17.73;5.37;;;;;;;9.34;39.06;98934.41;4172949;28;20327;-68
2022/03/30 11:24:34;;;;;;;12.87;4.67;;;;;;;9.17;39.32;98930.16;4190735;28;21161;-64
2022/03/30 11:27:01;;;;;;;13.50;5.17;;;;;;;9.49;38.28;98937.13;4182798;28;20375;-67
2022/03/30 11:29:49;;;;;;;13.47;5.03;;;;;;;9.65;37.72;98934.38;4193310;28;20650;-65
2022/03/30 11:32:18;;;;;;;15.10;5.67;;;;;;;9.57;38.19;98931.75;4176550;28;21309;-65
2022/03/30 11:34:46;;;;;;;13.87;5.77;;;;;;;9.75;38.10;98941.28;4184947;28;20974;-66
2022/03/30 11:37:13;;;;;;;14.67;5.50;;;;;;;9.57;38.43;98934.41;4193548;28;26487;-68